Dutch
Home     News     Corporate     Events & Tours     Flight ops     Crew centre      
My transavia virtual    Join us    Last logs    Who is flying    Software    Training    VRTS     
 

view flightdata
view flightplan
view OFP
view flightlog



flightdata:
pilot: Bernard B Mienville
flight: TRA232
from: ESSA (Stockholm Arlanda)
to: EHRD (Rotterdam)
date: 14-02-2019
departure: 15:29z
arrival: 17:24z
duration: 1:54
aircraft: B738 (PHHZO)
distance: 664 NM
touchdown: -79 ft/m @ 132 KIAS



flightplan:
-(FPL-TRA232-IS
-B738/M-SDE2E3FGIRWXY/LB1
-ESSA1530
-N0450F360 DKR N872 ELPAX Z703 ALS N872 DEMIR UN872 EEL
-EHRD0141 EHAM
-PBN/A1B1D1O1S1 DOF/190214 REG/PHHZO EET/EKDK0041 EDVV0057 EHAA0115 SEL/MQGP RVR/200 OPR/TRA)



operational flightplan (OFP):
DISPATCH BRIEFING (TEL:
--------- --------- --------- --------- --------- --------- ---------  
PREDEPARTURE ATC CLEARANCE:
.
.
--------- --------- --------- --------- --------- --------- ---------  
OFP  1    14 FEB 19/15:15
                                    OBS  2807

TRA232     C/S TRA5575  ESSA/ARN   EHRD/RTM         CRZ SYS     CI 15
14 FEB 19  PH-HZO       1955/1955  2146/2151        GND DIST      669
           TAB:.....    CTOT:....  STA  2155        AIR DIST      669
                                                    AVG W/C         0
MAXIMUM    ZFW  62731  LAW  66360  TOW  74975       AVG ISA       M08
ESTIMATED  ZFW  62665  LAW  65225  TOW  69646       F-F FACTOR    0.0
ACTUAL     ZFW  .....  LAW  .....  TOW  .....
--------- --------- --------- --------- --------- --------- ---------
TRIP        4421   0141           .....  .....
CONT         221   0006           .....  .....
ALTN         819   0018  EHAM     .....  .....  ....
FINAL       1157   0030           .....  .....
ADDNL        363   0009           .....  .....
TANKERING                  
PLN TOF     6618   0235
DIFF        ....   ....
PLN TOF     ....   ....  (CORRECTED)   
EXTRA          0   ....                  
TOF         6618   ....                 
TAXI         200   ....                  
BLOCK       7181   ....        
--------- --------- --------- --------- --------- --------- ---------
REASON EXTRA FUEL      MATRIX FUEL:
O ECN-ECONAMICAL     O TMP-TEMPORARILY      O ATC-AIR TRAFFIC CNTRL
O FOB-FUEL ON.BOARD  O MSC-MISCELLANEOUS    O FPC-FLIGHT PLN CORR
O WXR-WEATHER        O TEC-TECHNICAL        ACT.CI/CRZ USED: . . .   

--------- --------- --------- --------- --------- --------- ---------

ZFW ZFW 1000 : PLN TOF   XXXXX/TRIP XXXXX 00 MIN HOLD DEST: 0 EXTRA
ZFW ZFW-1000 : PLN TOF   XXXXX/TRIP XXXXX
--------- --------- --------- --------- --------- --------- ---------
COMMANDERS NAME:                           SIGNATURE:

--------- --------- --------- --------- --------- --------- ---------
FROM:  ESSA ELEV136      TO: EHRD ELEV-14        ALTN: EHAM ELEV -11
ATC C/S     : TRA55TRA232             AVG ISA : M08
CO-ROUTE    :                        AVG TT  :   
FMC-RES FUEL: 1976                   AVG W/C :    0
CRZ ALT     : FL360                  FL310
CI          : CI 15                  FL200     360/000
                                     FL100

ESSA/26  N0450F360 DKR2K DKR N872 ELPAX Z703 ALS N872 DEMIR UN872
EEL EEL2R EHRD/24

--------- --------- --------- --------- --------- --------- ---------
.
.
--------- --------- --------- --------- --------- --------- ---------
RVSM ALT CHECK:  FL:...... LEFT: ...... STBY: ...... RIGHT: ......

--------- --------- --------- --------- --------- --------- ---------
DESTINATION ALTERNATE EHAM
--------- --------- --------- --------- --------- --------- ---------

--------- --------- --------- --------- --------- --------- ---------
--------- --------- --------- --------- --------- --------- ---------
ALTERNATE SUMMARY
--------- --------- --------- --------- --------- --------- ---------
      ALTN        DIST   LVL       WC TIME  FUEL VIA
      EHAM/27       64  FL090    0 0018   819 STD DCT AMS
INFO/EBOS/26       78  FL120    0 0020   925 COST1B COA COA3A
INFO/EBBR/25L      86  FL120    0 0021   993 WOOD1B WOODY WODY7A
INFO/EHBK/21      118  FL070    0 0030  1293 INKE1B INKET P57 OSGOS
                                           OSGO1M
--------- --------- --------- --------- --------- --------- ---------

-(FPL-TRA232-IS
-B738/M-SDE2E3FGIRWXY/LB1
-ESSA1530
-N0450F360 DKR N872 ELPAX Z703 ALS N872 DEMIR UN872 EEL
-EHRD0141 EHAM
-PBN/A1B1D1O1S1 DOF/190214 REG/PHHZO EET/EKDK0041 EDVV0057 EHAA0115 SEL/MQGP RVR/200 OPR/TRA)

WEATHER BRIEFING - GENERATED 14 FEB 2019 15:15 UTC
--------------------------------------------------------------------------------

ESSA EHRD EHAM EBOS EBBR EHBK

--------------------------------------------------------------------------------
ORIGIN: ESSA (STOCKHOLM)
--------------------------------------------------------------------------------
ESSA 141450Z 24019KT 9999 BKN010 06/04 Q1018 R01L/19//65 R08/19//64 R01R/19//73 BECMG SCT013

ESSA 141502Z 1415/1512 24018KT 9999 OVC012
      BECMG 1415/1417 FEW015
      BECMG 1422/1424 25005KT


--------------------------------------------------------------------------------
DESTINATION: EHRD (ROTTERDAM)
--------------------------------------------------------------------------------
EHRD 141455Z AUTO 16005KT 9999 ////// 12/03 Q1033 NOSIG

EHRD 141107Z 1412/1518 17007KT CAVOK PROB30 1501/1508 4000 MIFG BR


--------------------------------------------------------------------------------
ALTERNATE: EHAM (SCHIPHOL)
--------------------------------------------------------------------------------
EHAM 141455Z 16007KT CAVOK 11/04 Q1034 NOSIG

EHAM 141107Z 1412/1518 17007KT CAVOK PROB30 1501/1508 4000 MIFG BR


--------------------------------------------------------------------------------
ALTERNATE: EBOS (OSTEND)
--------------------------------------------------------------------------------
EBOS 141450Z 14007KT CAVOK 12/03 Q1033 NOSIG

EBOS 141110Z 1412/1518 16007KT CAVOK PROB30
      TEMPO 1502/1507 4000 BR


--------------------------------------------------------------------------------
ALTERNATE: EBBR (BRUSSELS)
--------------------------------------------------------------------------------
EBBR 141450Z 13006KT CAVOK 13/M01 Q1034 NOSIG

EBBR 141110Z 1412/1518 13004KT CAVOK=  EDDF 141100Z 1412/1518 07003KT CAVOK


--------------------------------------------------------------------------------
ALTERNATE: EHBK (MAASTRICHT)
--------------------------------------------------------------------------------
EHBK 141455Z AUTO 05005KT 9999 NSC 14/00 Q1033 NOSIG

EHBK 141111Z 1412/1518 14004KT CAVOK


NOTAM BRIEFING - GENERATED 14 FEB 2019 15:16 UTC
--------------------------------------------------------------------------------

ESSA EHRD EHAM EHAM EBOS EBBR EHBK

--------------------------------------------------------------------------------
GLOBAL TRANSAVIA.COM VIRTUAL NOTAMS
--------------------------------------------------------------------------------
REF:NIL PLEASE CONTACT OPERATIONS IN CASE OF STRUCTURAL FLIGHTPLAN ERRORS ON FLIGHT-OPS@TRANSAVIA-VIRTUAL.COM
VALID:UFN

REF:NIL
PLEASE CHECK ACARS EVERY 10 MINUTES WHEN FLYING WITH SOUND OFF. AN NEW ACARS MESSAGE PRODUCE A SOUND SIGNAL UNTILL ITS READ. FLOWCONTROL DON'T RECEIVE MUCH REACTION ON OUTGOING ACARS MESSAGES ACCORDING FLIGHTSTATUS.
SOURCE: SPL/HV/OCC/
END VALID: UFN

REF:NIL
PLEASE CONTACT FLOWCONTROL IN CASE OF PROBLEMS WITH ROUTINGS
SOURCE: SPL/HV/OCC/
END VALID: UFN

REF:NIL
IN CASE OF ENGINE-OUT FLY V2 OR V2 20 MAX. UNTIL ABOVE MSA.
LEVEL-OFF AT AN ALTITUDE ROUNDED OFF TO THE FIRST 1000 FT OF THE HIGHEST MSA.
E.G: MSA EHAM; 1.7 AND 2.3 LEVEL-OFF 3000 FT. AFTER LANDING MAKE A REP TO OCC ON 131.975
SOURCE:SPL/HV/OCC
END VALID:UFN



flightlog:
Pilot : Bernard B Mienville
Flight: TRA232
From  : ESSA Stockholm
To    : EHRD Rotterdam

[FLIGHTLOG] 1.5.4
14-02-2019 15:28:36z, logging started
14-02-2019 15:29:34z, flaps set to 25%
14-02-2019 15:29:35z, flaps set to 38%
14-02-2019 15:29:44z, parking brake released
14-02-2019 15:36:41z, take-off at 166 KIAS
14-02-2019 15:36:41z, pos report: 166 KIAS, 00 148 ft, heading 255, winds 240 @ 19 kts
14-02-2019 15:36:41z, flying OFFLINE
14-02-2019 15:36:41z, position: ESSA - Stockholm
14-02-2019 15:36:46z, retracted gear at 193 KIAS and 91 ft AGL
14-02-2019 15:36:58z, flaps set to 13%
14-02-2019 15:36:59z, flaps set to 0%
14-02-2019 15:43:36z, pos report: 328 KIAS, 20 750 ft, heading 220, winds 293 @ 55 kts
14-02-2019 15:58:37z, pos report: 268 KIAS, 36 321 ft, heading 226, winds 320 @ 33 kts
14-02-2019 16:13:38z, pos report: 271 KIAS, 36 457 ft, heading 223, winds 328 @ 24 kts
14-02-2019 16:28:38z, pos report: 271 KIAS, 36 497 ft, heading 226, winds 337 @ 17 kts
14-02-2019 16:43:39z, pos report: 270 KIAS, 36 536 ft, heading 229, winds 348 @ 21 kts
14-02-2019 16:58:40z, pos report: 267 KIAS, 11 871 ft, heading 241, winds 285 @ 07 kts
14-02-2019 17:02:40z, flaps set to 13%
14-02-2019 17:02:45z, flaps set to 0%
14-02-2019 17:06:48z, flaps set to 13%
14-02-2019 17:06:58z, flaps set to 38%
14-02-2019 17:08:45z, flaps set to 50%
14-02-2019 17:12:41z, below glideslope
14-02-2019 17:13:41z, pos report: 161 KIAS, 01 957 ft, heading 223, winds 232 @ 09 kts
14-02-2019 17:15:50z, flaps set to 62%
14-02-2019 17:15:53z, lowered gear at 155 KIAS and 2038 ft AGL
14-02-2019 17:16:42z, intercepted localizer
14-02-2019 17:16:49z, flaps set to 87%
14-02-2019 17:18:00z, on glideslope
14-02-2019 17:21:06z, touchdown: -79ft/m at 132 KIAS
14-02-2019 17:21:06z, pos report: 132 KIAS, -00 005 ft, heading 237, winds 267 @ 01 kts
14-02-2019 17:21:06z, flying OFFLINE
14-02-2019 17:21:06z, position: EHRD - Rotterdam
14-02-2019 17:21:25z, flaps set to 75%
14-02-2019 17:21:26z, flaps set to 13%
14-02-2019 17:21:27z, flaps set to 0%
14-02-2019 17:24:39z, parking brake set
14-02-2019 17:26:05z, logging ended
14-02-2019 17:26:05z, this flight was flown offline

©2009-2020, transavia virtual. All rights reserved. This website is only meant for simulation purposes.
This website is not owned by transavia, nor is transavia responsible for the content of this website.